sensor_id;sensor_type;location;lat;lon;timestamp;P1;durP1;ratioP1;P2;durP2;ratioP2
48578;SDS011;34357;51.948;6.132;2023-07-09T00:01:17;17.73;;;11.38;;
48578;SDS011;34357;51.948;6.132;2023-07-09T00:03:44;15.18;;;10.45;;
48578;SDS011;34357;51.948;6.132;2023-07-09T00:06:13;15.43;;;11.18;;
48578;SDS011;34357;51.948;6.132;2023-07-09T00:08:41;18.35;;;11.13;;
48578;SDS011;34357;51.948;6.132;2023-07-09T00:11:09;23.65;;;11.40;;
48578;SDS011;34357;51.948;6.132;2023-07-09T00:13:35;15.13;;;10.05;;
48578;SDS011;34357;51.948;6.132;2023-07-09T00:16:01;21.58;;;11.68;;
48578;SDS011;34357;51.948;6.132;2023-07-09T00:18:36;17.95;;;10.68;;
48578;SDS011;34357;51.948;6.132;2023-07-09T00:21:02;16.45;;;11.52;;
48578;SDS011;34357;51.948;6.132;2023-07-09T00:23:27;15.98;;;11.52;;
48578;SDS011;34357;51.948;6.132;2023-07-09T00:25:54;17.30;;;11.30;;
48578;SDS011;34357;51.948;6.132;2023-07-09T00:28:20;16.83;;;10.98;;
48578;SDS011;34357;51.948;6.132;2023-07-09T00:30:46;14.02;;;10.82;;
48578;SDS011;34357;51.948;6.132;2023-07-09T00:33:14;14.15;;;10.75;;
48578;SDS011;34357;51.948;6.132;2023-07-09T00:35:41;20.10;;;10.93;;
48578;SDS011;34357;51.948;6.132;2023-07-09T00:38:26;14.38;;;10.57;;
48578;SDS011;34357;51.948;6.132;2023-07-09T00:41:02;14.73;;;10.55;;
48578;SDS011;34357;51.948;6.132;2023-07-09T00:43:31;14.77;;;10.50;;
48578;SDS011;34357;51.948;6.132;2023-07-09T00:48:45;18.42;;;12.25;;
48578;SDS011;34357;51.948;6.132;2023-07-09T00:51:15;16.05;;;11.25;;
48578;SDS011;34357;51.948;6.132;2023-07-09T00:53:43;19.50;;;12.38;;
48578;SDS011;34357;51.948;6.132;2023-07-09T00:56:14;15.25;;;11.82;;
48578;SDS011;34357;51.948;6.132;2023-07-09T00:58:45;18.33;;;11.98;;
48578;SDS011;34357;51.948;6.132;2023-07-09T01:01:13;16.52;;;11.57;;
48578;SDS011;34357;51.948;6.132;2023-07-09T01:03:45;15.80;;;11.98;;
48578;SDS011;34357;51.948;6.132;2023-07-09T01:06:13;16.15;;;11.50;;
48578;SDS011;34357;51.948;6.132;2023-07-09T01:08:44;15.43;;;11.93;;
48578;SDS011;34357;51.948;6.132;2023-07-09T01:11:15;18.90;;;12.57;;
48578;SDS011;34357;51.948;6.132;2023-07-09T01:13:47;20.13;;;12.50;;
48578;SDS011;34357;51.948;6.132;2023-07-09T01:16:16;18.55;;;12.52;;
48578;SDS011;34357;51.948;6.132;2023-07-09T01:18:42;17.85;;;12.98;;
48578;SDS011;34357;51.948;6.132;2023-07-09T01:21:09;19.35;;;12.63;;
48578;SDS011;34357;51.948;6.132;2023-07-09T01:23:42;18.45;;;12.50;;
48578;SDS011;34357;51.948;6.132;2023-07-09T01:26:13;19.10;;;12.85;;
48578;SDS011;34357;51.948;6.132;2023-07-09T01:28:40;19.27;;;12.88;;
48578;SDS011;34357;51.948;6.132;2023-07-09T01:31:10;18.83;;;12.40;;
48578;SDS011;34357;51.948;6.132;2023-07-09T01:33:38;16.27;;;11.55;;
48578;SDS011;34357;51.948;6.132;2023-07-09T01:36:08;17.00;;;12.45;;
48578;SDS011;34357;51.948;6.132;2023-07-09T01:38:35;19.52;;;13.15;;
48578;SDS011;34357;51.948;6.132;2023-07-09T01:41:02;20.27;;;12.93;;
48578;SDS011;34357;51.948;6.132;2023-07-09T01:43:28;20.70;;;12.38;;
48578;SDS011;34357;51.948;6.132;2023-07-09T01:45:54;17.95;;;11.82;;
48578;SDS011;34357;51.948;6.132;2023-07-09T01:48:23;16.52;;;11.45;;
48578;SDS011;34357;51.948;6.132;2023-07-09T01:50:50;15.85;;;11.35;;
48578;SDS011;34357;51.948;6.132;2023-07-09T01:53:21;21.02;;;11.88;;
48578;SDS011;34357;51.948;6.132;2023-07-09T01:55:50;15.20;;;10.90;;
48578;SDS011;34357;51.948;6.132;2023-07-09T01:58:16;16.73;;;10.70;;
48578;SDS011;34357;51.948;6.132;2023-07-09T02:00:42;16.80;;;9.82;;
48578;SDS011;34357;51.948;6.132;2023-07-09T02:03:10;17.45;;;10.63;;
48578;SDS011;34357;51.948;6.132;2023-07-09T02:05:36;17.48;;;10.70;;
48578;SDS011;34357;51.948;6.132;2023-07-09T02:08:02;17.48;;;11.07;;
48578;SDS011;34357;51.948;6.132;2023-07-09T02:10:29;17.60;;;10.43;;
48578;SDS011;34357;51.948;6.132;2023-07-09T02:12:55;14.98;;;10.00;;
48578;SDS011;34357;51.948;6.132;2023-07-09T02:15:21;15.55;;;10.98;;
48578;SDS011;34357;51.948;6.132;2023-07-09T02:17:47;15.95;;;10.57;;
48578;SDS011;34357;51.948;6.132;2023-07-09T02:20:13;18.88;;;9.23;;
48578;SDS011;34357;51.948;6.132;2023-07-09T02:22:40;15.00;;;9.85;;
48578;SDS011;34357;51.948;6.132;2023-07-09T02:25:06;14.90;;;10.60;;
48578;SDS011;34357;51.948;6.132;2023-07-09T02:27:33;22.48;;;11.98;;
48578;SDS011;34357;51.948;6.132;2023-07-09T02:30:00;17.33;;;10.35;;
48578;SDS011;34357;51.948;6.132;2023-07-09T02:32:27;15.63;;;10.38;;
48578;SDS011;34357;51.948;6.132;2023-07-09T02:34:54;13.75;;;10.35;;
48578;SDS011;34357;51.948;6.132;2023-07-09T02:37:22;14.48;;;10.48;;
48578;SDS011;34357;51.948;6.132;2023-07-09T02:39:49;15.82;;;10.15;;
48578;SDS011;34357;51.948;6.132;2023-07-09T02:42:16;15.65;;;10.73;;
48578;SDS011;34357;51.948;6.132;2023-07-09T02:44:44;17.00;;;10.93;;
48578;SDS011;34357;51.948;6.132;2023-07-09T02:47:11;16.42;;;12.07;;
48578;SDS011;34357;51.948;6.132;2023-07-09T02:49:39;13.63;;;10.77;;
48578;SDS011;34357;51.948;6.132;2023-07-09T02:52:05;19.95;;;11.93;;
48578;SDS011;34357;51.948;6.132;2023-07-09T02:54:31;17.25;;;11.82;;
48578;SDS011;34357;51.948;6.132;2023-07-09T02:56:57;18.35;;;12.02;;
48578;SDS011;34357;51.948;6.132;2023-07-09T02:59:23;16.55;;;12.60;;
48578;SDS011;34357;51.948;6.132;2023-07-09T03:01:49;23.38;;;13.85;;
48578;SDS011;34357;51.948;6.132;2023-07-09T03:04:15;18.80;;;12.43;;
48578;SDS011;34357;51.948;6.132;2023-07-09T03:06:41;21.58;;;12.43;;
48578;SDS011;34357;51.948;6.132;2023-07-09T03:09:07;16.23;;;12.27;;
48578;SDS011;34357;51.948;6.132;2023-07-09T03:11:34;20.85;;;12.70;;
48578;SDS011;34357;51.948;6.132;2023-07-09T03:14:01;18.00;;;11.90;;
48578;SDS011;34357;51.948;6.132;2023-07-09T03:16:27;24.67;;;12.30;;
48578;SDS011;34357;51.948;6.132;2023-07-09T03:18:54;16.90;;;11.88;;
48578;SDS011;34357;51.948;6.132;2023-07-09T03:21:21;17.48;;;12.10;;
48578;SDS011;34357;51.948;6.132;2023-07-09T03:23:48;17.13;;;11.35;;
48578;SDS011;34357;51.948;6.132;2023-07-09T03:26:13;15.38;;;11.15;;
48578;SDS011;34357;51.948;6.132;2023-07-09T03:28:40;17.15;;;11.68;;
48578;SDS011;34357;51.948;6.132;2023-07-09T03:31:06;20.88;;;11.57;;
48578;SDS011;34357;51.948;6.132;2023-07-09T03:33:32;16.73;;;11.73;;
48578;SDS011;34357;51.948;6.132;2023-07-09T03:35:57;22.52;;;11.55;;
48578;SDS011;34357;51.948;6.132;2023-07-09T03:38:23;15.95;;;10.55;;
48578;SDS011;34357;51.948;6.132;2023-07-09T03:40:50;17.23;;;10.50;;
48578;SDS011;34357;51.948;6.132;2023-07-09T03:43:19;17.80;;;11.43;;
48578;SDS011;34357;51.948;6.132;2023-07-09T03:45:46;15.68;;;11.63;;
48578;SDS011;34357;51.948;6.132;2023-07-09T03:48:12;17.38;;;11.48;;
48578;SDS011;34357;51.948;6.132;2023-07-09T03:50:39;17.52;;;10.68;;
48578;SDS011;34357;51.948;6.132;2023-07-09T03:53:07;18.98;;;12.27;;
48578;SDS011;34357;51.948;6.132;2023-07-09T03:55:32;20.70;;;11.55;;
48578;SDS011;34357;51.948;6.132;2023-07-09T03:57:58;19.13;;;12.18;;
48578;SDS011;34357;51.948;6.132;2023-07-09T04:00:24;14.82;;;10.82;;
48578;SDS011;34357;51.948;6.132;2023-07-09T04:02:50;16.80;;;11.43;;
48578;SDS011;34357;51.948;6.132;2023-07-09T04:05:17;14.65;;;11.10;;
48578;SDS011;34357;51.948;6.132;2023-07-09T04:07:43;18.40;;;11.50;;
48578;SDS011;34357;51.948;6.132;2023-07-09T04:10:09;18.65;;;11.57;;
48578;SDS011;34357;51.948;6.132;2023-07-09T04:12:35;19.58;;;11.95;;
48578;SDS011;34357;51.948;6.132;2023-07-09T04:15:02;18.02;;;10.60;;
48578;SDS011;34357;51.948;6.132;2023-07-09T04:17:29;18.38;;;11.00;;
48578;SDS011;34357;51.948;6.132;2023-07-09T04:19:55;19.10;;;11.57;;
48578;SDS011;34357;51.948;6.132;2023-07-09T04:22:20;15.35;;;10.35;;
48578;SDS011;34357;51.948;6.132;2023-07-09T04:24:46;13.18;;;9.48;;
48578;SDS011;34357;51.948;6.132;2023-07-09T04:27:12;15.00;;;10.57;;
48578;SDS011;34357;51.948;6.132;2023-07-09T04:29:39;20.33;;;12.05;;
48578;SDS011;34357;51.948;6.132;2023-07-09T04:32:05;20.60;;;11.82;;
48578;SDS011;34357;51.948;6.132;2023-07-09T04:34:32;14.23;;;10.57;;
48578;SDS011;34357;51.948;6.132;2023-07-09T04:36:57;16.02;;;11.25;;
48578;SDS011;34357;51.948;6.132;2023-07-09T04:39:23;18.40;;;11.80;;
48578;SDS011;34357;51.948;6.132;2023-07-09T04:41:49;18.33;;;11.60;;
48578;SDS011;34357;51.948;6.132;2023-07-09T04:44:15;17.73;;;12.23;;
48578;SDS011;34357;51.948;6.132;2023-07-09T04:46:41;20.05;;;12.65;;
48578;SDS011;34357;51.948;6.132;2023-07-09T04:49:08;18.20;;;11.90;;
48578;SDS011;34357;51.948;6.132;2023-07-09T04:51:37;16.33;;;11.65;;
48578;SDS011;34357;51.948;6.132;2023-07-09T04:54:03;18.05;;;11.07;;
48578;SDS011;34357;51.948;6.132;2023-07-09T04:56:29;16.08;;;10.40;;
48578;SDS011;34357;51.948;6.132;2023-07-09T04:58:55;16.10;;;11.85;;
48578;SDS011;34357;51.948;6.132;2023-07-09T05:01:21;16.58;;;11.75;;
48578;SDS011;34357;51.948;6.132;2023-07-09T05:03:47;18.75;;;12.60;;
48578;SDS011;34357;51.948;6.132;2023-07-09T05:06:13;21.38;;;13.02;;
48578;SDS011;34357;51.948;6.132;2023-07-09T05:08:39;15.32;;;11.95;;
48578;SDS011;34357;51.948;6.132;2023-07-09T05:11:08;20.02;;;13.77;;
48578;SDS011;34357;51.948;6.132;2023-07-09T05:13:34;16.98;;;13.05;;
48578;SDS011;34357;51.948;6.132;2023-07-09T05:15:59;19.45;;;14.57;;
48578;SDS011;34357;51.948;6.132;2023-07-09T05:18:25;16.15;;;12.43;;
48578;SDS011;34357;51.948;6.132;2023-07-09T05:20:51;16.95;;;13.02;;
48578;SDS011;34357;51.948;6.132;2023-07-09T05:23:16;19.20;;;13.27;;
48578;SDS011;34357;51.948;6.132;2023-07-09T05:25:42;18.95;;;13.20;;
48578;SDS011;34357;51.948;6.132;2023-07-09T05:28:08;17.40;;;12.23;;
48578;SDS011;34357;51.948;6.132;2023-07-09T05:30:34;15.07;;;11.57;;
48578;SDS011;34357;51.948;6.132;2023-07-09T05:32:59;15.70;;;11.05;;
48578;SDS011;34357;51.948;6.132;2023-07-09T05:35:26;15.63;;;12.32;;
48578;SDS011;34357;51.948;6.132;2023-07-09T05:37:52;17.15;;;12.60;;
48578;SDS011;34357;51.948;6.132;2023-07-09T05:40:19;16.20;;;11.45;;
48578;SDS011;34357;51.948;6.132;2023-07-09T05:42:46;21.13;;;12.50;;
48578;SDS011;34357;51.948;6.132;2023-07-09T05:45:13;19.08;;;11.82;;
48578;SDS011;34357;51.948;6.132;2023-07-09T05:47:39;17.95;;;12.15;;
48578;SDS011;34357;51.948;6.132;2023-07-09T05:50:05;16.58;;;11.27;;
48578;SDS011;34357;51.948;6.132;2023-07-09T05:52:31;16.67;;;10.90;;
48578;SDS011;34357;51.948;6.132;2023-07-09T05:54:57;16.70;;;10.25;;
48578;SDS011;34357;51.948;6.132;2023-07-09T05:57:24;17.83;;;10.52;;
48578;SDS011;34357;51.948;6.132;2023-07-09T05:59:50;17.52;;;11.35;;
48578;SDS011;34357;51.948;6.132;2023-07-09T06:02:17;22.60;;;10.65;;
48578;SDS011;34357;51.948;6.132;2023-07-09T06:04:45;16.80;;;10.20;;
48578;SDS011;34357;51.948;6.132;2023-07-09T06:07:11;21.15;;;10.93;;
48578;SDS011;34357;51.948;6.132;2023-07-09T06:09:37;13.15;;;10.15;;
48578;SDS011;34357;51.948;6.132;2023-07-09T06:12:03;14.13;;;9.57;;
48578;SDS011;34357;51.948;6.132;2023-07-09T06:14:30;17.48;;;10.05;;
48578;SDS011;34357;51.948;6.132;2023-07-09T06:16:57;18.00;;;10.85;;
48578;SDS011;34357;51.948;6.132;2023-07-09T06:19:23;16.80;;;10.70;;
48578;SDS011;34357;51.948;6.132;2023-07-09T06:21:49;14.85;;;10.23;;
48578;SDS011;34357;51.948;6.132;2023-07-09T06:24:14;14.20;;;10.10;;
48578;SDS011;34357;51.948;6.132;2023-07-09T06:26:40;17.92;;;10.55;;
48578;SDS011;34357;51.948;6.132;2023-07-09T06:29:06;16.45;;;9.48;;
48578;SDS011;34357;51.948;6.132;2023-07-09T06:31:32;19.48;;;10.77;;
48578;SDS011;34357;51.948;6.132;2023-07-09T06:33:57;15.23;;;9.77;;
48578;SDS011;34357;51.948;6.132;2023-07-09T06:36:23;14.60;;;9.25;;
48578;SDS011;34357;51.948;6.132;2023-07-09T06:38:49;18.15;;;9.85;;
48578;SDS011;34357;51.948;6.132;2023-07-09T06:41:15;15.48;;;9.25;;
48578;SDS011;34357;51.948;6.132;2023-07-09T06:43:41;12.70;;;8.50;;
48578;SDS011;34357;51.948;6.132;2023-07-09T06:46:08;13.82;;;9.27;;
48578;SDS011;34357;51.948;6.132;2023-07-09T06:48:36;16.88;;;8.90;;
48578;SDS011;34357;51.948;6.132;2023-07-09T06:51:02;13.77;;;8.60;;
48578;SDS011;34357;51.948;6.132;2023-07-09T06:53:28;15.65;;;9.32;;
48578;SDS011;34357;51.948;6.132;2023-07-09T06:55:55;16.05;;;9.65;;
48578;SDS011;34357;51.948;6.132;2023-07-09T06:58:24;15.93;;;8.98;;
48578;SDS011;34357;51.948;6.132;2023-07-09T07:00:53;12.15;;;9.18;;
48578;SDS011;34357;51.948;6.132;2023-07-09T07:03:20;17.73;;;9.00;;
48578;SDS011;34357;51.948;6.132;2023-07-09T07:05:48;19.65;;;9.48;;
48578;SDS011;34357;51.948;6.132;2023-07-09T07:08:15;13.45;;;8.98;;
48578;SDS011;34357;51.948;6.132;2023-07-09T07:10:44;16.30;;;8.90;;
48578;SDS011;34357;51.948;6.132;2023-07-09T07:13:11;13.77;;;8.32;;
48578;SDS011;34357;51.948;6.132;2023-07-09T07:15:38;16.50;;;8.93;;
48578;SDS011;34357;51.948;6.132;2023-07-09T07:18:04;13.32;;;8.48;;
48578;SDS011;34357;51.948;6.132;2023-07-09T07:20:31;13.13;;;8.40;;
48578;SDS011;34357;51.948;6.132;2023-07-09T07:22:57;12.50;;;8.50;;
48578;SDS011;34357;51.948;6.132;2023-07-09T07:25:23;14.40;;;8.20;;
48578;SDS011;34357;51.948;6.132;2023-07-09T07:27:49;11.63;;;7.20;;
48578;SDS011;34357;51.948;6.132;2023-07-09T07:30:15;12.15;;;7.80;;
48578;SDS011;34357;51.948;6.132;2023-07-09T07:32:43;14.23;;;7.53;;
48578;SDS011;34357;51.948;6.132;2023-07-09T07:35:14;11.57;;;7.28;;
48578;SDS011;34357;51.948;6.132;2023-07-09T07:37:40;15.43;;;8.30;;
48578;SDS011;34357;51.948;6.132;2023-07-09T07:40:07;21.20;;;7.75;;
48578;SDS011;34357;51.948;6.132;2023-07-09T07:42:33;11.55;;;8.38;;
48578;SDS011;34357;51.948;6.132;2023-07-09T07:44:58;15.65;;;8.20;;
48578;SDS011;34357;51.948;6.132;2023-07-09T07:47:24;17.30;;;8.02;;
48578;SDS011;34357;51.948;6.132;2023-07-09T07:49:52;15.95;;;8.70;;
48578;SDS011;34357;51.948;6.132;2023-07-09T07:52:18;13.60;;;8.98;;
48578;SDS011;34357;51.948;6.132;2023-07-09T07:54:44;12.50;;;8.43;;
48578;SDS011;34357;51.948;6.132;2023-07-09T07:57:10;12.25;;;8.50;;
48578;SDS011;34357;51.948;6.132;2023-07-09T07:59:37;14.35;;;9.18;;
48578;SDS011;34357;51.948;6.132;2023-07-09T08:02:03;14.75;;;9.00;;
48578;SDS011;34357;51.948;6.132;2023-07-09T08:04:30;16.40;;;8.35;;
48578;SDS011;34357;51.948;6.132;2023-07-09T08:06:56;11.57;;;8.00;;
48578;SDS011;34357;51.948;6.132;2023-07-09T08:09:23;11.77;;;8.63;;
48578;SDS011;34357;51.948;6.132;2023-07-09T08:11:50;14.55;;;9.70;;
48578;SDS011;34357;51.948;6.132;2023-07-09T08:14:16;14.90;;;9.23;;
48578;SDS011;34357;51.948;6.132;2023-07-09T08:16:41;14.63;;;9.43;;
48578;SDS011;34357;51.948;6.132;2023-07-09T08:19:07;13.65;;;9.10;;
48578;SDS011;34357;51.948;6.132;2023-07-09T08:21:33;13.40;;;8.73;;
48578;SDS011;34357;51.948;6.132;2023-07-09T08:23:59;12.20;;;8.30;;
48578;SDS011;34357;51.948;6.132;2023-07-09T08:26:25;15.18;;;8.90;;
48578;SDS011;34357;51.948;6.132;2023-07-09T08:28:51;12.88;;;8.63;;
48578;SDS011;34357;51.948;6.132;2023-07-09T08:31:17;11.73;;;8.45;;
48578;SDS011;34357;51.948;6.132;2023-07-09T08:33:43;12.60;;;7.97;;
48578;SDS011;34357;51.948;6.132;2023-07-09T08:36:08;18.42;;;8.68;;
48578;SDS011;34357;51.948;6.132;2023-07-09T08:38:34;12.70;;;8.35;;
48578;SDS011;34357;51.948;6.132;2023-07-09T08:48:50;12.40;;;7.85;;
48578;SDS011;34357;51.948;6.132;2023-07-09T08:51:21;15.23;;;8.10;;
48578;SDS011;34357;51.948;6.132;2023-07-09T08:53:50;14.93;;;8.02;;
48578;SDS011;34357;51.948;6.132;2023-07-09T08:56:22;15.02;;;7.68;;
48578;SDS011;34357;51.948;6.132;2023-07-09T08:58:49;11.93;;;7.90;;
48578;SDS011;34357;51.948;6.132;2023-07-09T09:01:23;12.82;;;7.65;;
48578;SDS011;34357;51.948;6.132;2023-07-09T09:03:57;10.10;;;7.38;;
48578;SDS011;34357;51.948;6.132;2023-07-09T09:06:29;13.18;;;7.57;;
48578;SDS011;34357;51.948;6.132;2023-07-09T09:11:43;11.00;;;7.55;;
48578;SDS011;34357;51.948;6.132;2023-07-09T09:14:25;10.82;;;7.13;;
48578;SDS011;34357;51.948;6.132;2023-07-09T09:16:56;12.70;;;7.93;;
48578;SDS011;34357;51.948;6.132;2023-07-09T09:19:32;10.30;;;7.43;;
48578;SDS011;34357;51.948;6.132;2023-07-09T09:22:10;14.27;;;7.38;;
48578;SDS011;34357;51.948;6.132;2023-07-09T09:27:30;15.30;;;7.43;;
48578;SDS011;34357;51.948;6.132;2023-07-09T09:29:56;15.05;;;7.40;;
48578;SDS011;34357;51.948;6.132;2023-07-09T09:32:23;10.70;;;7.55;;
48578;SDS011;34357;51.948;6.132;2023-07-09T09:34:51;11.27;;;7.15;;
48578;SDS011;34357;51.948;6.132;2023-07-09T09:37:26;11.25;;;7.00;;
48578;SDS011;34357;51.948;6.132;2023-07-09T09:39:58;15.48;;;7.68;;
48578;SDS011;34357;51.948;6.132;2023-07-09T09:42:24;10.73;;;7.68;;
48578;SDS011;34357;51.948;6.132;2023-07-09T09:44:53;12.07;;;7.63;;
48578;SDS011;34357;51.948;6.132;2023-07-09T09:47:19;11.75;;;7.43;;
48578;SDS011;34357;51.948;6.132;2023-07-09T09:49:46;10.15;;;6.55;;
48578;SDS011;34357;51.948;6.132;2023-07-09T09:52:15;9.77;;;7.38;;
48578;SDS011;34357;51.948;6.132;2023-07-09T09:54:53;8.50;;;6.47;;
48578;SDS011;34357;51.948;6.132;2023-07-09T09:57:34;12.52;;;7.00;;
48578;SDS011;34357;51.948;6.132;2023-07-09T09:59:59;9.48;;;6.50;;
48578;SDS011;34357;51.948;6.132;2023-07-09T10:02:25;10.93;;;6.90;;
48578;SDS011;34357;51.948;6.132;2023-07-09T10:04:51;10.88;;;6.78;;
48578;SDS011;34357;51.948;6.132;2023-07-09T10:09:57;14.85;;;6.40;;
48578;SDS011;34357;51.948;6.132;2023-07-09T10:20:39;11.35;;;5.85;;
48578;SDS011;34357;51.948;6.132;2023-07-09T10:23:26;9.57;;;5.75;;
48578;SDS011;34357;51.948;6.132;2023-07-09T10:25:55;14.93;;;5.80;;
48578;SDS011;34357;51.948;6.132;2023-07-09T10:28:31;10.70;;;5.20;;
48578;SDS011;34357;51.948;6.132;2023-07-09T10:34:21;8.30;;;5.10;;
48578;SDS011;34357;51.948;6.132;2023-07-09T10:39:49;6.97;;;4.65;;
48578;SDS011;34357;51.948;6.132;2023-07-09T10:42:28;8.05;;;4.72;;
48578;SDS011;34357;51.948;6.132;2023-07-09T10:45:08;6.68;;;4.53;;
48578;SDS011;34357;51.948;6.132;2023-07-09T10:47:38;7.97;;;4.38;;
48578;SDS011;34357;51.948;6.132;2023-07-09T10:50:47;8.98;;;4.05;;
48578;SDS011;34357;51.948;6.132;2023-07-09T10:53:14;13.02;;;4.78;;
48578;SDS011;34357;51.948;6.132;2023-07-09T10:58:51;4.80;;;4.00;;
48578;SDS011;34357;51.948;6.132;2023-07-09T11:01:40;7.72;;;4.60;;
48578;SDS011;34357;51.948;6.132;2023-07-09T11:04:10;7.95;;;4.28;;
48578;SDS011;34357;51.948;6.132;2023-07-09T11:06:55;9.20;;;4.32;;
48578;SDS011;34357;51.948;6.132;2023-07-09T11:09:37;6.95;;;3.90;;
48578;SDS011;34357;51.948;6.132;2023-07-09T11:15:00;8.63;;;4.30;;
48578;SDS011;34357;51.948;6.132;2023-07-09T11:17:35;8.07;;;4.65;;
48578;SDS011;34357;51.948;6.132;2023-07-09T11:20:14;8.40;;;4.88;;
48578;SDS011;34357;51.948;6.132;2023-07-09T11:23:17;8.40;;;4.70;;
48578;SDS011;34357;51.948;6.132;2023-07-09T11:25:46;10.32;;;4.15;;
48578;SDS011;34357;51.948;6.132;2023-07-09T11:28:13;5.72;;;4.05;;
48578;SDS011;34357;51.948;6.132;2023-07-09T11:33:19;8.95;;;4.53;;
48578;SDS011;34357;51.948;6.132;2023-07-09T11:35:52;8.02;;;4.28;;
48578;SDS011;34357;51.948;6.132;2023-07-09T11:38:38;4.97;;;3.70;;
48578;SDS011;34357;51.948;6.132;2023-07-09T11:41:25;7.90;;;4.28;;
48578;SDS011;34357;51.948;6.132;2023-07-09T11:44:20;8.18;;;4.00;;
48578;SDS011;34357;51.948;6.132;2023-07-09T11:46:52;6.05;;;4.22;;
48578;SDS011;34357;51.948;6.132;2023-07-09T11:49:21;7.45;;;4.30;;
48578;SDS011;34357;51.948;6.132;2023-07-09T11:51:51;9.15;;;4.50;;
48578;SDS011;34357;51.948;6.132;2023-07-09T11:54:20;8.77;;;4.30;;
48578;SDS011;34357;51.948;6.132;2023-07-09T11:56:59;9.30;;;4.57;;
48578;SDS011;34357;51.948;6.132;2023-07-09T11:59:26;7.38;;;4.85;;
48578;SDS011;34357;51.948;6.132;2023-07-09T12:01:52;7.07;;;4.57;;
48578;SDS011;34357;51.948;6.132;2023-07-09T12:04:25;6.65;;;4.55;;
48578;SDS011;34357;51.948;6.132;2023-07-09T12:07:00;10.52;;;4.68;;
48578;SDS011;34357;51.948;6.132;2023-07-09T12:09:32;7.57;;;4.18;;
48578;SDS011;34357;51.948;6.132;2023-07-09T12:12:02;9.70;;;4.93;;
48578;SDS011;34357;51.948;6.132;2023-07-09T12:14:28;7.85;;;4.60;;
48578;SDS011;34357;51.948;6.132;2023-07-09T12:16:54;8.63;;;4.40;;
48578;SDS011;34357;51.948;6.132;2023-07-09T12:19:23;8.52;;;4.60;;
48578;SDS011;34357;51.948;6.132;2023-07-09T12:21:51;11.93;;;4.50;;
48578;SDS011;34357;51.948;6.132;2023-07-09T12:24:27;5.57;;;3.88;;
48578;SDS011;34357;51.948;6.132;2023-07-09T12:26:57;10.73;;;4.28;;
48578;SDS011;34357;51.948;6.132;2023-07-09T12:29:28;6.53;;;4.30;;
48578;SDS011;34357;51.948;6.132;2023-07-09T12:31:56;7.32;;;4.30;;
48578;SDS011;34357;51.948;6.132;2023-07-09T12:34:23;8.93;;;4.32;;
48578;SDS011;34357;51.948;6.132;2023-07-09T12:36:50;9.07;;;4.50;;
48578;SDS011;34357;51.948;6.132;2023-07-09T12:39:19;10.55;;;4.53;;
48578;SDS011;34357;51.948;6.132;2023-07-09T12:41:53;10.10;;;4.40;;
48578;SDS011;34357;51.948;6.132;2023-07-09T12:44:21;5.60;;;3.83;;
48578;SDS011;34357;51.948;6.132;2023-07-09T12:46:49;9.65;;;4.75;;
48578;SDS011;34357;51.948;6.132;2023-07-09T12:51:47;5.97;;;4.25;;
48578;SDS011;34357;51.948;6.132;2023-07-09T12:54:14;6.18;;;4.60;;
48578;SDS011;34357;51.948;6.132;2023-07-09T12:56:44;13.88;;;4.65;;
48578;SDS011;34357;51.948;6.132;2023-07-09T12:59:53;9.13;;;4.35;;
48578;SDS011;34357;51.948;6.132;2023-07-09T13:04:39;9.20;;;3.92;;
48578;SDS011;34357;51.948;6.132;2023-07-09T13:07:05;10.00;;;4.03;;
48578;SDS011;34357;51.948;6.132;2023-07-09T13:09:49;7.72;;;4.20;;
48578;SDS011;34357;51.948;6.132;2023-07-09T13:12:29;5.53;;;3.97;;
48578;SDS011;34357;51.948;6.132;2023-07-09T13:14:57;10.50;;;4.50;;
48578;SDS011;34357;51.948;6.132;2023-07-09T13:17:27;6.15;;;4.10;;
48578;SDS011;34357;51.948;6.132;2023-07-09T13:19:54;8.52;;;3.80;;
48578;SDS011;34357;51.948;6.132;2023-07-09T13:22:22;6.65;;;4.38;;
48578;SDS011;34357;51.948;6.132;2023-07-09T13:24:48;7.45;;;3.97;;
48578;SDS011;34357;51.948;6.132;2023-07-09T13:27:15;6.43;;;4.30;;
48578;SDS011;34357;51.948;6.132;2023-07-09T13:29:41;8.88;;;4.60;;
48578;SDS011;34357;51.948;6.132;2023-07-09T13:32:12;10.00;;;4.85;;
48578;SDS011;34357;51.948;6.132;2023-07-09T13:34:39;7.15;;;4.40;;
48578;SDS011;34357;51.948;6.132;2023-07-09T13:37:08;9.13;;;4.22;;
48578;SDS011;34357;51.948;6.132;2023-07-09T13:39:39;8.27;;;4.80;;
48578;SDS011;34357;51.948;6.132;2023-07-09T13:42:09;6.95;;;4.60;;
48578;SDS011;34357;51.948;6.132;2023-07-09T13:44:38;9.10;;;5.10;;
48578;SDS011;34357;51.948;6.132;2023-07-09T13:47:08;8.60;;;4.38;;
48578;SDS011;34357;51.948;6.132;2023-07-09T13:49:36;8.45;;;4.68;;
48578;SDS011;34357;51.948;6.132;2023-07-09T13:52:02;8.02;;;4.70;;
48578;SDS011;34357;51.948;6.132;2023-07-09T13:54:29;8.23;;;4.28;;
48578;SDS011;34357;51.948;6.132;2023-07-09T13:57:04;11.93;;;4.65;;
48578;SDS011;34357;51.948;6.132;2023-07-09T13:59:31;8.95;;;4.70;;
48578;SDS011;34357;51.948;6.132;2023-07-09T14:01:57;8.98;;;4.53;;
48578;SDS011;34357;51.948;6.132;2023-07-09T14:04:24;10.70;;;5.20;;
48578;SDS011;34357;51.948;6.132;2023-07-09T14:06:51;9.18;;;5.15;;
48578;SDS011;34357;51.948;6.132;2023-07-09T14:09:17;10.95;;;4.82;;
48578;SDS011;34357;51.948;6.132;2023-07-09T14:11:44;9.70;;;5.68;;
48578;SDS011;34357;51.948;6.132;2023-07-09T14:14:15;7.53;;;5.57;;
48578;SDS011;34357;51.948;6.132;2023-07-09T14:16:47;12.43;;;6.00;;
48578;SDS011;34357;51.948;6.132;2023-07-09T14:19:15;8.15;;;6.35;;
48578;SDS011;34357;51.948;6.132;2023-07-09T14:21:43;14.27;;;6.13;;
48578;SDS011;34357;51.948;6.132;2023-07-09T14:24:19;14.02;;;6.03;;
48578;SDS011;34357;51.948;6.132;2023-07-09T14:26:45;11.02;;;6.07;;
48578;SDS011;34357;51.948;6.132;2023-07-09T14:29:12;8.88;;;6.03;;
48578;SDS011;34357;51.948;6.132;2023-07-09T14:31:39;10.85;;;6.40;;
48578;SDS011;34357;51.948;6.132;2023-07-09T14:36:48;12.18;;;6.90;;
48578;SDS011;34357;51.948;6.132;2023-07-09T14:39:15;22.45;;;8.18;;
48578;SDS011;34357;51.948;6.132;2023-07-09T14:41:41;14.30;;;8.15;;
48578;SDS011;34357;51.948;6.132;2023-07-09T14:46:51;14.43;;;8.65;;
48578;SDS011;34357;51.948;6.132;2023-07-09T14:49:19;11.30;;;7.97;;
48578;SDS011;34357;51.948;6.132;2023-07-09T14:51:45;14.52;;;8.38;;
48578;SDS011;34357;51.948;6.132;2023-07-09T14:56:45;15.15;;;9.18;;
48578;SDS011;34357;51.948;6.132;2023-07-09T14:59:11;14.23;;;8.02;;
48578;SDS011;34357;51.948;6.132;2023-07-09T15:01:37;12.70;;;8.15;;
48578;SDS011;34357;51.948;6.132;2023-07-09T15:04:09;10.98;;;8.88;;
48578;SDS011;34357;51.948;6.132;2023-07-09T15:06:51;15.50;;;8.48;;
48578;SDS011;34357;51.948;6.132;2023-07-09T15:09:22;11.57;;;8.63;;
48578;SDS011;34357;51.948;6.132;2023-07-09T15:11:53;14.05;;;8.98;;
48578;SDS011;34357;51.948;6.132;2023-07-09T15:16:46;14.48;;;7.97;;
48578;SDS011;34357;51.948;6.132;2023-07-09T15:19:15;17.27;;;9.00;;
48578;SDS011;34357;51.948;6.132;2023-07-09T15:21:41;14.82;;;8.82;;
48578;SDS011;34357;51.948;6.132;2023-07-09T15:24:26;20.80;;;8.98;;
48578;SDS011;34357;51.948;6.132;2023-07-09T15:26:55;15.25;;;8.02;;
48578;SDS011;34357;51.948;6.132;2023-07-09T15:29:22;17.10;;;9.50;;
48578;SDS011;34357;51.948;6.132;2023-07-09T15:31:49;19.02;;;8.73;;
48578;SDS011;34357;51.948;6.132;2023-07-09T15:34:15;16.17;;;8.98;;
48578;SDS011;34357;51.948;6.132;2023-07-09T15:36:45;12.65;;;8.10;;